createdAt,value
2022-10-01T00:01:00.544Z,100659.81
2022-10-01T00:04:01.885Z,100654.59
2022-10-01T00:07:04.229Z,100656.09
2022-10-01T00:10:06.693Z,100644.97
2022-10-01T00:13:08.497Z,100646.78
2022-10-01T00:16:13.098Z,100638.00
2022-10-01T00:19:14.650Z,100631.03
2022-10-01T00:22:16.012Z,100622.31
2022-10-01T00:25:17.553Z,100624.59
2022-10-01T00:28:18.973Z,100612.34
2022-10-01T00:31:20.477Z,100615.56
2022-10-01T00:34:22.014Z,100609.28
2022-10-01T00:37:23.352Z,100607.47
2022-10-01T00:40:24.742Z,100604.75
2022-10-01T00:43:32.468Z,100593.47
2022-10-01T00:46:42.845Z,100587.53
2022-10-01T00:49:44.895Z,100578.16
2022-10-01T00:52:52.247Z,100574.66
2022-10-01T00:55:56.700Z,100576.94
2022-10-01T00:58:58.515Z,100570.56
2022-10-01T01:01:59.951Z,100563.59
2022-10-01T01:05:02.067Z,100552.22
2022-10-01T01:08:03.803Z,100553.75
2022-10-01T01:11:21.163Z,100547.69
2022-10-01T01:14:34.492Z,100543.88
2022-10-01T01:17:55.688Z,100548.13
2022-10-01T01:21:29.324Z,100538.59
2022-10-01T01:24:46.393Z,100531.34
2022-10-01T01:28:29.210Z,100532.91
2022-10-01T01:31:36.935Z,100525.78
2022-10-01T01:34:42.729Z,100522.03
2022-10-01T01:37:51.660Z,100521.03
2022-10-01T01:40:55.309Z,100514.13
2022-10-01T01:44:00.462Z,100512.13
2022-10-01T01:47:03.841Z,100494.09
2022-10-01T01:50:05.840Z,100487.91
2022-10-01T01:53:07.426Z,100484.13
2022-10-01T01:56:09.061Z,100477.19
2022-10-01T01:59:10.389Z,100464.97
2022-10-01T02:02:19.148Z,100451.00
2022-10-01T02:05:25.570Z,100448.41
2022-10-01T02:09:05.501Z,100440.72
2022-10-01T02:12:27.370Z,100431.09
2022-10-01T02:15:41.826Z,100435.25
2022-10-01T02:18:55.398Z,100424.75
2022-10-01T02:22:00.947Z,100419.78
2022-10-01T02:25:06.496Z,100423.16
2022-10-01T02:28:11.995Z,100412.53
2022-10-01T02:31:15.312Z,100420.09
2022-10-01T02:34:20.289Z,100405.13
2022-10-01T02:37:26.342Z,100405.00
2022-10-01T02:40:32.186Z,100414.03
2022-10-01T02:43:49.055Z,100408.88
2022-10-01T02:47:04.044Z,100401.88
2022-10-01T02:50:07.784Z,100398.94
2022-10-01T02:53:17.240Z,100396.66
2022-10-01T02:56:19.035Z,100385.41
2022-10-01T02:59:21.620Z,100387.00
2022-10-01T03:02:24.528Z,100384.50
2022-10-01T03:05:25.964Z,100377.38
2022-10-01T03:08:27.327Z,100377.47
2022-10-01T03:11:28.683Z,100370.59
2022-10-01T03:14:30.032Z,100381.44
2022-10-01T03:17:31.408Z,100378.88
2022-10-01T03:20:32.765Z,100382.41
2022-10-01T03:23:34.136Z,100381.06
2022-10-01T03:26:35.765Z,100378.00
2022-10-01T03:29:37.124Z,100369.06
2022-10-01T03:32:39.745Z,100366.28
2022-10-01T03:35:41.146Z,100360.06
2022-10-01T03:38:42.569Z,100363.94
2022-10-01T03:41:44.055Z,100354.81
2022-10-01T03:44:45.401Z,100353.69
2022-10-01T03:47:55.848Z,100351.25
2022-10-01T03:50:59.289Z,100355.09
2022-10-01T03:54:00.649Z,100337.09
2022-10-01T03:57:02.109Z,100329.19
2022-10-01T04:00:04.897Z,100324.94
2022-10-01T04:03:14.086Z,100322.53
2022-10-01T04:06:16.522Z,100315.06
2022-10-01T04:09:17.918Z,100303.28
2022-10-01T04:12:19.269Z,100293.97
2022-10-01T04:15:20.651Z,100291.38
2022-10-01T04:18:22.010Z,100286.41
2022-10-01T04:21:23.345Z,100265.84
2022-10-01T04:24:24.687Z,100269.38
2022-10-01T04:27:26.074Z,100255.81
2022-10-01T04:30:30.578Z,100240.25
2022-10-01T04:33:31.908Z,100239.53
2022-10-01T04:36:33.247Z,100235.19
2022-10-01T04:39:34.583Z,100225.91
2022-10-01T04:42:39.909Z,100226.88
2022-10-01T04:45:41.243Z,100214.06
2022-10-01T04:48:42.820Z,100204.75
2022-10-01T04:51:44.200Z,100205.75
2022-10-01T04:54:45.575Z,100194.72
2022-10-01T04:57:47.021Z,100201.72
2022-10-01T05:00:49.290Z,100191.47
2022-10-01T05:03:50.688Z,100196.00
2022-10-01T05:06:52.045Z,100189.09
2022-10-01T05:09:53.393Z,100178.69
2022-10-01T05:12:54.804Z,100180.47
2022-10-01T05:15:56.145Z,100176.31
2022-10-01T05:18:57.533Z,100179.88
2022-10-01T05:21:59.614Z,100181.63
2022-10-01T05:25:01.038Z,100173.06
2022-10-01T05:28:02.774Z,100168.66
2022-10-01T05:31:04.527Z,100169.47
2022-10-01T05:34:05.907Z,100164.31
2022-10-01T05:37:07.282Z,100166.91
2022-10-01T05:40:08.993Z,100162.59
2022-10-01T05:43:10.325Z,100170.25
2022-10-01T05:46:11.723Z,100168.41
2022-10-01T05:49:13.045Z,100161.41
2022-10-01T05:52:15.510Z,100160.41
2022-10-01T05:55:16.891Z,100158.66
2022-10-01T05:58:18.230Z,100161.16
2022-10-01T06:01:19.699Z,100156.81
2022-10-01T06:04:21.052Z,100143.94
2022-10-01T06:07:22.367Z,100143.03
2022-10-01T06:10:24.997Z,100131.00
2022-10-01T06:13:26.691Z,100136.06
2022-10-01T06:16:28.071Z,100126.47
2022-10-01T06:19:29.481Z,100126.31
2022-10-01T06:22:30.824Z,100120.25
2022-10-01T06:25:32.535Z,100123.50
2022-10-01T06:28:34.204Z,100127.06
2022-10-01T06:31:35.722Z,100112.53
2022-10-01T06:34:37.292Z,100110.59
2022-10-01T06:37:38.804Z,100105.25
2022-10-01T06:40:40.859Z,100109.50
2022-10-01T06:43:42.188Z,100106.03
2022-10-01T06:46:43.524Z,100113.66
2022-10-01T06:49:47.664Z,100104.25
2022-10-01T06:52:49.757Z,100118.06
2022-10-01T06:55:51.106Z,100118.06
2022-10-01T06:58:52.452Z,100099.28
2022-10-01T07:01:56.289Z,100100.22
2022-10-01T07:04:58.493Z,100097.63
2022-10-01T07:07:59.984Z,100096.88
2022-10-01T07:11:03.026Z,100089.09
2022-10-01T07:14:04.397Z,100091.66
2022-10-01T07:17:05.714Z,100076.09
2022-10-01T07:20:07.474Z,100079.41
2022-10-01T07:23:12.471Z,100074.06
2022-10-01T07:26:13.882Z,100061.09
2022-10-01T07:29:15.227Z,100063.59
2022-10-01T07:32:16.594Z,100053.09
2022-10-01T07:35:18.664Z,100040.22
2022-10-01T07:38:20.194Z,100040.22
2022-10-01T07:41:21.536Z,100042.59
2022-10-01T07:44:22.919Z,100027.13
2022-10-01T07:47:24.278Z,100034.75
2022-10-01T07:50:27.493Z,100027.03
2022-10-01T07:53:28.955Z,100027.03
2022-10-01T07:56:30.283Z,100018.28
2022-10-01T07:59:31.627Z,100023.34
2022-10-01T08:02:33.003Z,100012.84
2022-10-01T08:05:35.587Z,100006.78
2022-10-01T08:08:36.964Z,100018.84
2022-10-01T08:11:38.276Z,100017.84
2022-10-01T08:14:39.587Z,100015.97
2022-10-01T08:17:41.344Z,100025.16
2022-10-01T08:20:42.839Z,100009.50
2022-10-01T08:23:44.193Z,100017.88
2022-10-01T08:26:45.549Z,100005.81
2022-10-01T08:29:46.888Z,100020.28
2022-10-01T08:32:48.216Z,100020.06
2022-10-01T08:35:49.832Z,100020.72
2022-10-01T08:38:51.154Z,100002.56
2022-10-01T08:42:21.417Z,100006.72
2022-10-01T08:45:33.136Z,100014.16
2022-10-01T08:48:43.601Z,100017.38
2022-10-01T08:51:57.064Z,100016.16
2022-10-01T08:55:06.829Z,100012.66
2022-10-01T08:58:15.889Z,100029.41
2022-10-01T09:01:17.258Z,100017.75
2022-10-01T09:04:18.682Z,100007.78
2022-10-01T09:07:49.157Z,100025.28
2022-10-01T09:10:59.813Z,100029.84
2022-10-01T09:14:20.061Z,100031.72
2022-10-01T09:17:51.958Z,100026.50
2022-10-01T09:20:58.661Z,100038.16
2022-10-01T09:24:09.715Z,100036.00
2022-10-01T09:27:15.469Z,100036.34
2022-10-01T09:30:20.590Z,100043.25
2022-10-01T09:33:23.986Z,100040.69
2022-10-01T09:36:35.167Z,100035.94
2022-10-01T09:39:51.847Z,100041.50
2022-10-01T09:42:53.297Z,100032.84
2022-10-01T09:45:55.013Z,100041.94
2022-10-01T09:49:03.140Z,100044.91
2022-10-01T09:52:13.280Z,100045.69
2022-10-01T09:55:36.489Z,100048.44
2022-10-01T09:58:40.883Z,100046.66
2022-10-01T10:01:47.758Z,100051.75
2022-10-01T10:04:59.824Z,100054.81
2022-10-01T10:08:23.731Z,100047.78
2022-10-01T10:11:28.524Z,100042.22
2022-10-01T10:14:35.059Z,100047.78
2022-10-01T10:17:36.479Z,100051.19
2022-10-01T10:20:44.391Z,100056.97
2022-10-01T10:24:07.249Z,100054.47
2022-10-01T10:27:22.142Z,100062.56
2022-10-01T10:30:24.437Z,100064.78
2022-10-01T10:33:26.240Z,100070.44
2022-10-01T10:36:32.651Z,100078.03
2022-10-01T10:39:37.768Z,100076.66
2022-10-01T10:42:47.680Z,100074.88
2022-10-01T10:45:52.267Z,100075.81
2022-10-01T10:49:00.785Z,100075.53
2022-10-01T10:52:02.345Z,100082.13
2022-10-01T10:55:22.706Z,100084.47
2022-10-01T10:58:26.462Z,100080.41
2022-10-01T11:01:29.310Z,100070.63
2022-10-01T11:04:39.409Z,100079.03
2022-10-01T11:07:44.538Z,100079.41
2022-10-01T11:10:48.562Z,100074.78
2022-10-01T11:14:22.722Z,100071.94
2022-10-01T11:17:57.154Z,100077.34
2022-10-01T11:21:10.430Z,100081.31
2022-10-01T11:24:23.952Z,100087.19
2022-10-01T11:27:53.323Z,100093.13
2022-10-01T11:31:00.793Z,100087.91
2022-10-01T11:34:17.919Z,100093.94
2022-10-01T11:37:39.511Z,100094.47
2022-10-01T11:40:42.026Z,100097.34
2022-10-01T11:43:49.875Z,100092.50
2022-10-01T11:47:17.139Z,100091.28
2022-10-01T11:50:23.424Z,100089.03
2022-10-01T11:53:37.995Z,100091.66
2022-10-01T11:56:52.802Z,100092.13
2022-10-01T11:59:59.501Z,100090.66
2022-10-01T12:03:05.084Z,100097.22
2022-10-01T12:06:10.757Z,100104.19
2022-10-01T12:09:26.278Z,100108.28
2022-10-01T12:12:38.636Z,100108.94
2022-10-01T12:15:49.497Z,100104.72
2022-10-01T12:19:25.154Z,100099.47
2022-10-01T12:22:31.397Z,100104.97
2022-10-01T12:25:41.844Z,100105.06
2022-10-01T12:28:52.733Z,100115.00
2022-10-01T12:32:14.901Z,100120.84
2022-10-01T12:35:22.789Z,100109.94
2022-10-01T12:38:46.353Z,100112.03
2022-10-01T12:41:59.623Z,100118.63
2022-10-01T12:45:36.343Z,100124.13
2022-10-01T12:48:43.350Z,100123.25
2022-10-01T12:51:47.696Z,100147.13
2022-10-01T12:54:58.918Z,100168.72
2022-10-01T12:58:38.834Z,100187.56
2022-10-01T13:01:59.109Z,100201.34
2022-10-01T13:05:26.706Z,100207.81
2022-10-01T13:08:53.098Z,100216.84
2022-10-01T13:12:25.707Z,100227.47
2022-10-01T13:15:32.678Z,100236.03
2022-10-01T13:18:42.770Z,100228.72
2022-10-01T13:21:52.639Z,100224.53
2022-10-01T13:25:03.515Z,100225.28
2022-10-01T13:28:16.863Z,100230.25
2022-10-01T13:31:18.376Z,100235.44
2022-10-01T13:34:45.995Z,100247.16
2022-10-01T13:37:47.328Z,100248.22
2022-10-01T13:40:57.951Z,100249.34
2022-10-01T13:44:18.415Z,100244.53
2022-10-01T13:47:21.476Z,100251.47
2022-10-01T13:50:24.957Z,100257.66
2022-10-01T13:53:27.663Z,100260.22
2022-10-01T13:56:32.852Z,100253.78
2022-10-01T13:59:36.422Z,100249.97
2022-10-01T14:02:41.045Z,100261.56
2022-10-01T14:05:42.956Z,100260.06
2022-10-01T14:08:50.840Z,100261.94
2022-10-01T14:11:58.119Z,100257.72
2022-10-01T14:15:02.681Z,100263.16
2022-10-01T14:18:09.421Z,100262.31
2022-10-01T14:21:45.936Z,100255.25
2022-10-01T14:25:10.792Z,100272.31
2022-10-01T14:28:34.658Z,100273.84
2022-10-01T14:31:56.662Z,100278.34
2022-10-01T14:35:19.893Z,100288.97
2022-10-01T14:38:21.896Z,100281.78
2022-10-01T14:41:24.180Z,100292.41
2022-10-01T14:44:31.244Z,100301.31
2022-10-01T14:47:32.594Z,100309.66
2022-10-01T14:50:36.950Z,100304.22
2022-10-01T14:53:42.854Z,100301.31
2022-10-01T14:56:44.298Z,100313.81
2022-10-01T14:59:48.328Z,100312.25
2022-10-01T15:03:02.251Z,100312.81
2022-10-01T15:06:10.516Z,100315.06
2022-10-01T15:09:14.778Z,100315.66
2022-10-01T15:12:18.636Z,100325.47
2022-10-01T15:15:24.509Z,100334.81
2022-10-01T15:18:26.667Z,100332.75
2022-10-01T15:21:35.868Z,100339.94
2022-10-01T15:24:42.271Z,100343.03
2022-10-01T15:27:43.668Z,100345.91
2022-10-01T15:30:45.068Z,100342.09
2022-10-01T15:33:46.679Z,100352.34
2022-10-01T15:36:49.647Z,100347.69
2022-10-01T15:39:52.093Z,100353.09
2022-10-01T15:43:13.141Z,100365.31
2022-10-01T15:46:22.083Z,100372.50
2022-10-01T15:49:26.436Z,100380.91
2022-10-01T15:52:29.925Z,100385.28
2022-10-01T15:55:37.464Z,100398.94
2022-10-01T15:58:52.144Z,100398.53
2022-10-01T16:01:53.653Z,100400.88
2022-10-01T16:05:05.805Z,100405.91
2022-10-01T16:08:07.254Z,100419.06
2022-10-01T16:11:14.504Z,100422.34
2022-10-01T16:14:27.865Z,100425.47
2022-10-01T16:17:37.833Z,100435.91
2022-10-01T16:20:41.461Z,100436.66
2022-10-01T16:23:45.041Z,100428.78
2022-10-01T16:26:47.345Z,100444.28
2022-10-01T16:30:22.814Z,100444.50
2022-10-01T16:33:24.497Z,100453.28
2022-10-01T16:36:25.814Z,100454.44
2022-10-01T16:39:27.158Z,100465.94
2022-10-01T16:42:28.498Z,100464.72
2022-10-01T16:45:36.588Z,100472.94
2022-10-01T16:48:37.991Z,100483.75
2022-10-01T16:51:39.715Z,100490.97
2022-10-01T16:54:41.039Z,100492.09
2022-10-01T16:57:42.472Z,100503.69
2022-10-01T17:00:43.919Z,100503.91
2022-10-01T17:03:45.367Z,100512.00
2022-10-01T17:06:46.691Z,100513.13
2022-10-01T17:09:48.010Z,100529.78
2022-10-01T17:12:49.531Z,100527.38
2022-10-01T17:15:51.712Z,100530.25
2022-10-01T17:18:53.015Z,100539.97
2022-10-01T17:21:54.337Z,100546.22
2022-10-01T17:24:55.651Z,100554.25
2022-10-01T17:27:57.367Z,100557.75
2022-10-01T17:30:58.765Z,100576.72
2022-10-01T17:34:00.101Z,100580.88
2022-10-01T17:37:01.425Z,100592.81
2022-10-01T17:40:04.282Z,100594.44
2022-10-01T17:43:05.809Z,100591.84
2022-10-01T17:46:07.280Z,100601.28
2022-10-01T17:49:08.827Z,100595.91
2022-10-01T17:52:10.231Z,100608.84
2022-10-01T17:55:11.560Z,100611.66
2022-10-01T17:58:12.925Z,100623.13
2022-10-01T18:01:18.255Z,100627.13
2022-10-01T18:04:19.688Z,100632.19
2022-10-01T18:07:21.022Z,100645.63
2022-10-01T18:10:22.383Z,100645.34
2022-10-01T18:13:23.737Z,100656.13
2022-10-01T18:16:26.056Z,100653.84
2022-10-01T18:22:49.730Z,100661.50
2022-10-01T18:25:51.118Z,100665.81
2022-10-01T18:28:52.567Z,100676.16
2022-10-01T18:32:01.473Z,100680.06
2022-10-01T18:35:14.305Z,100681.91
2022-10-01T18:38:27.702Z,100692.81
2022-10-01T18:41:35.847Z,100688.56
2022-10-01T18:44:37.202Z,100696.34
2022-10-01T18:48:07.895Z,100700.22
2022-10-01T18:51:36.059Z,100705.66
2022-10-01T18:55:02.318Z,100716.16
2022-10-01T18:58:32.088Z,100722.38
2022-10-01T19:01:51.981Z,100729.66
2022-10-01T19:05:22.784Z,100734.59
2022-10-01T19:08:40.400Z,100743.38
2022-10-01T19:11:56.740Z,100737.63
2022-10-01T19:15:21.952Z,100743.22
2022-10-01T19:18:48.076Z,100750.69
2022-10-01T19:22:17.301Z,100746.78
2022-10-01T19:25:48.232Z,100752.31
2022-10-01T19:29:06.545Z,100754.16
2022-10-01T19:32:16.060Z,100760.22
2022-10-01T19:35:19.412Z,100764.75
2022-10-01T19:38:40.262Z,100770.91
2022-10-01T19:41:49.810Z,100766.09
2022-10-01T19:45:20.098Z,100775.66
2022-10-01T19:48:30.354Z,100781.59
2022-10-01T19:51:55.279Z,100792.94
2022-10-01T19:54:58.441Z,100794.00
2022-10-01T19:57:59.774Z,100795.09
2022-10-01T20:01:03.047Z,100804.34
2022-10-01T20:04:07.369Z,100800.16
2022-10-01T20:07:23.838Z,100799.59
2022-10-01T20:10:29.974Z,100803.66
2022-10-01T20:13:50.005Z,100803.34
2022-10-01T20:16:53.330Z,100811.75
2022-10-01T20:20:17.095Z,100823.94
2022-10-01T20:23:46.304Z,100826.19
2022-10-01T20:26:54.586Z,100829.78
2022-10-01T20:30:20.313Z,100833.44
2022-10-01T20:33:34.653Z,100835.50
2022-10-01T20:37:09.912Z,100833.00
2022-10-01T20:40:17.523Z,100843.34
2022-10-01T20:43:34.453Z,100843.53
2022-10-01T20:46:47.706Z,100850.50
2022-10-01T20:50:00.447Z,100854.84
2022-10-01T20:53:16.089Z,100857.50
2022-10-01T20:56:24.492Z,100867.84
2022-10-01T20:59:48.871Z,100866.16
2022-10-01T21:03:10.981Z,100865.31
2022-10-01T21:06:19.412Z,100868.66
2022-10-01T21:09:30.648Z,100880.75
2022-10-01T21:12:39.350Z,100881.34
2022-10-01T21:16:06.990Z,100890.69
2022-10-01T21:19:42.557Z,100903.38
2022-10-01T21:22:52.661Z,100905.19
2022-10-01T21:26:05.027Z,100902.84
2022-10-01T21:29:09.369Z,100906.44
2022-10-01T21:32:32.857Z,100916.00
2022-10-01T21:36:06.801Z,100920.41
2022-10-01T21:39:17.293Z,100929.41
2022-10-01T21:42:25.718Z,100933.16
2022-10-01T21:46:04.703Z,100938.03
2022-10-01T21:49:19.282Z,100936.78
2022-10-01T21:52:46.190Z,100939.13
2022-10-01T21:56:09.254Z,100940.97
2022-10-01T21:59:38.134Z,100946.06
2022-10-01T22:02:54.501Z,100951.78
2022-10-01T22:06:15.084Z,100958.25
2022-10-01T22:09:34.827Z,100976.03
2022-10-01T22:12:40.108Z,100982.63
2022-10-01T22:15:44.034Z,100984.47
2022-10-01T22:18:54.970Z,100984.47
2022-10-01T22:22:04.559Z,100981.13
2022-10-01T22:25:07.954Z,100983.97
2022-10-01T22:28:14.218Z,100988.47
2022-10-01T22:31:21.443Z,100983.38
2022-10-01T22:34:28.842Z,100975.78
2022-10-01T22:37:47.239Z,100974.22
2022-10-01T22:40:59.768Z,100975.13
2022-10-01T22:44:11.411Z,100990.38
2022-10-01T22:47:31.631Z,100999.72
2022-10-01T22:50:46.244Z,100997.88
2022-10-01T22:54:23.981Z,100999.09
2022-10-01T22:57:43.681Z,100995.88
2022-10-01T23:00:59.402Z,100992.91
2022-10-01T23:04:12.880Z,100998.28
2022-10-01T23:07:28.674Z,101000.34
2022-10-01T23:11:07.346Z,100997.19
2022-10-01T23:14:22.392Z,101000.75
2022-10-01T23:17:42.181Z,100998.16
2022-10-01T23:20:50.457Z,101006.00
2022-10-01T23:24:14.318Z,101007.72
2022-10-01T23:27:33.993Z,101007.56
2022-10-01T23:31:32.937Z,101004.84
2022-10-01T23:34:48.893Z,101008.31
2022-10-01T23:37:59.306Z,101015.16
2022-10-01T23:41:39.370Z,101032.56
2022-10-01T23:45:17.322Z,101030.66
2022-10-01T23:48:51.773Z,101041.75
2022-10-01T23:52:13.882Z,101038.19
2022-10-01T23:55:35.575Z,101038.13
2022-10-01T23:58:45.350Z,101044.84
